sensor_id;sensor_type;location;lat;lon;timestamp;noise_LAeq;noise_LA_min;noise_LA_max;noise_LA01;noise_LA95
45246;Laerm;31529;51.158;7.354;2022-08-01T00:00:17;43.25;40.83;48.18;;
45246;Laerm;31529;51.158;7.354;2022-08-01T00:00:48;42.65;40.73;49.55;;
45246;Laerm;31529;51.158;7.354;2022-08-01T00:01:19;42.45;40.63;45.44;;
45246;Laerm;31529;51.158;7.354;2022-08-01T00:01:51;45.93;40.63;56.82;;
45246;Laerm;31529;51.158;7.354;2022-08-01T00:02:22;47.35;44.02;56.42;;
45246;Laerm;31529;51.158;7.354;2022-08-01T00:02:53;49.63;46.78;63.45;;
45246;Laerm;31529;51.158;7.354;2022-08-01T00:03:24;49.21;46.07;59.80;;
45246;Laerm;31529;51.158;7.354;2022-08-01T00:03:55;47.18;44.95;50.42;;
45246;Laerm;31529;51.158;7.354;2022-08-01T00:04:26;45.26;43.54;54.60;;
45246;Laerm;31529;51.158;7.354;2022-08-01T00:04:57;44.73;42.65;49.00;;
45246;Laerm;31529;51.158;7.354;2022-08-01T00:05:28;44.31;42.33;49.06;;
45246;Laerm;31529;51.158;7.354;2022-08-01T00:05:59;44.88;43.23;47.50;;
45246;Laerm;31529;51.158;7.354;2022-08-01T00:06:30;44.46;42.26;47.30;;
45246;Laerm;31529;51.158;7.354;2022-08-01T00:07:01;43.62;41.68;46.02;;
45246;Laerm;31529;51.158;7.354;2022-08-01T00:07:33;44.58;41.19;53.40;;
45246;Laerm;31529;51.158;7.354;2022-08-01T00:08:05;50.50;43.06;56.03;;
45246;Laerm;31529;51.158;7.354;2022-08-01T00:08:36;43.64;41.83;47.27;;
45246;Laerm;31529;51.158;7.354;2022-08-01T00:09:07;44.56;40.53;47.58;;
45246;Laerm;31529;51.158;7.354;2022-08-01T00:09:37;44.47;40.53;52.24;;
45246;Laerm;31529;51.158;7.354;2022-08-01T00:10:11;46.71;42.05;51.53;;
45246;Laerm;31529;51.158;7.354;2022-08-01T00:10:42;42.57;40.33;47.21;;
45246;Laerm;31529;51.158;7.354;2022-08-01T00:11:13;42.87;40.53;48.06;;
45246;Laerm;31529;51.158;7.354;2022-08-01T00:11:44;42.30;39.64;45.41;;
45246;Laerm;31529;51.158;7.354;2022-08-01T00:12:16;66.48;43.12;81.24;;
45246;Laerm;31529;51.158;7.354;2022-08-01T00:12:47;42.40;39.11;45.75;;
45246;Laerm;31529;51.158;7.354;2022-08-01T00:13:18;42.51;39.25;47.60;;
45246;Laerm;31529;51.158;7.354;2022-08-01T00:13:48;42.08;38.67;45.17;;
45246;Laerm;31529;51.158;7.354;2022-08-01T00:14:20;41.35;38.67;44.41;;
45246;Laerm;31529;51.158;7.354;2022-08-01T00:14:51;40.64;37.62;44.45;;
45246;Laerm;31529;51.158;7.354;2022-08-01T00:15:22;41.42;37.82;45.84;;
45246;Laerm;31529;51.158;7.354;2022-08-01T00:15:53;41.66;38.18;50.67;;
45246;Laerm;31529;51.158;7.354;2022-08-01T00:16:24;40.58;37.62;49.69;;
45246;Laerm;31529;51.158;7.354;2022-08-01T00:16:55;43.37;38.67;49.51;;
45246;Laerm;31529;51.158;7.354;2022-08-01T00:17:26;42.42;37.82;53.90;;
45246;Laerm;31529;51.158;7.354;2022-08-01T00:17:57;42.02;37.82;49.66;;
45246;Laerm;31529;51.158;7.354;2022-08-01T00:18:28;40.08;36.99;44.77;;
45246;Laerm;31529;51.158;7.354;2022-08-01T00:18:59;41.22;38.97;44.69;;
45246;Laerm;31529;51.158;7.354;2022-08-01T00:19:30;40.52;37.62;43.69;;
45246;Laerm;31529;51.158;7.354;2022-08-01T00:20:04;40.11;37.42;43.63;;
45246;Laerm;31529;51.158;7.354;2022-08-01T00:20:35;43.43;36.99;56.06;;
45246;Laerm;31529;51.158;7.354;2022-08-01T00:21:06;43.64;39.88;53.11;;
45246;Laerm;31529;51.158;7.354;2022-08-01T00:21:37;45.47;39.51;57.59;;
45246;Laerm;31529;51.158;7.354;2022-08-01T00:22:08;43.79;38.35;52.06;;
45246;Laerm;31529;51.158;7.354;2022-08-01T00:22:39;44.26;38.97;51.79;;
45246;Laerm;31529;51.158;7.354;2022-08-01T00:23:10;42.66;39.76;50.37;;
45246;Laerm;31529;51.158;7.354;2022-08-01T00:23:41;43.82;38.67;50.61;;
45246;Laerm;31529;51.158;7.354;2022-08-01T00:24:12;53.12;40.33;69.68;;
45246;Laerm;31529;51.158;7.354;2022-08-01T00:24:43;61.10;41.19;74.52;;
45246;Laerm;31529;51.158;7.354;2022-08-01T00:25:14;42.75;39.88;50.03;;
45246;Laerm;31529;51.158;7.354;2022-08-01T00:25:45;43.66;39.64;52.11;;
45246;Laerm;31529;51.158;7.354;2022-08-01T00:26:16;42.60;39.88;47.78;;
45246;Laerm;31529;51.158;7.354;2022-08-01T00:26:47;43.22;40.83;45.90;;
45246;Laerm;31529;51.158;7.354;2022-08-01T00:27:18;43.10;40.11;47.05;;
45246;Laerm;31529;51.158;7.354;2022-08-01T00:27:49;43.30;40.43;47.84;;
45246;Laerm;31529;51.158;7.354;2022-08-01T00:28:20;45.60;40.73;56.33;;
45246;Laerm;31529;51.158;7.354;2022-08-01T00:28:51;44.12;39.65;52.28;;
45246;Laerm;31529;51.158;7.354;2022-08-01T00:29:22;44.28;39.25;58.70;;
45246;Laerm;31529;51.158;7.354;2022-08-01T00:29:53;44.50;39.76;58.08;;
45246;Laerm;31529;51.158;7.354;2022-08-01T00:30:24;42.91;39.51;53.94;;
45246;Laerm;31529;51.158;7.354;2022-08-01T00:30:55;42.00;39.51;48.75;;
45246;Laerm;31529;51.158;7.354;2022-08-01T00:31:26;44.50;40.53;49.83;;
45246;Laerm;31529;51.158;7.354;2022-08-01T00:31:57;44.78;40.63;55.79;;
45246;Laerm;31529;51.158;7.354;2022-08-01T00:32:31;44.69;40.43;49.14;;
45246;Laerm;31529;51.158;7.354;2022-08-01T00:33:02;42.60;38.62;47.03;;
45246;Laerm;31529;51.158;7.354;2022-08-01T00:33:33;44.34;38.35;49.93;;
45246;Laerm;31529;51.158;7.354;2022-08-01T00:34:04;46.57;39.51;56.11;;
45246;Laerm;31529;51.158;7.354;2022-08-01T00:34:35;43.78;39.51;49.71;;
45246;Laerm;31529;51.158;7.354;2022-08-01T00:35:06;44.95;38.97;51.21;;
45246;Laerm;31529;51.158;7.354;2022-08-01T00:35:37;47.45;39.76;62.84;;
45246;Laerm;31529;51.158;7.354;2022-08-01T00:36:08;46.82;41.10;61.21;;
45246;Laerm;31529;51.158;7.354;2022-08-01T00:36:39;41.35;38.35;51.16;;
45246;Laerm;31529;51.158;7.354;2022-08-01T00:37:10;41.87;37.62;49.79;;
45246;Laerm;31529;51.158;7.354;2022-08-01T00:37:41;40.80;38.48;43.44;;
45246;Laerm;31529;51.158;7.354;2022-08-01T00:38:12;41.74;38.00;51.52;;
45246;Laerm;31529;51.158;7.354;2022-08-01T00:38:43;42.00;38.18;46.65;;
45246;Laerm;31529;51.158;7.354;2022-08-01T00:39:14;41.83;36.99;52.38;;
45246;Laerm;31529;51.158;7.354;2022-08-01T00:39:45;43.87;38.18;54.95;;
45246;Laerm;31529;51.158;7.354;2022-08-01T00:40:16;42.16;37.21;53.28;;
45246;Laerm;31529;51.158;7.354;2022-08-01T00:40:48;42.06;36.50;53.91;;
45246;Laerm;31529;51.158;7.354;2022-08-01T00:41:19;40.88;37.62;44.92;;
45246;Laerm;31529;51.158;7.354;2022-08-01T00:41:50;42.63;36.99;54.62;;
45246;Laerm;31529;51.158;7.354;2022-08-01T00:42:21;40.46;36.24;48.94;;
45246;Laerm;31529;51.158;7.354;2022-08-01T00:42:52;39.88;34.99;44.45;;
45246;Laerm;31529;51.158;7.354;2022-08-01T00:43:23;42.78;37.42;52.84;;
45246;Laerm;31529;51.158;7.354;2022-08-01T00:43:54;41.48;36.99;49.59;;
45246;Laerm;31529;51.158;7.354;2022-08-01T00:44:25;39.75;35.66;44.73;;
45246;Laerm;31529;51.158;7.354;2022-08-01T00:44:56;42.53;38.82;48.30;;
45246;Laerm;31529;51.158;7.354;2022-08-01T00:45:27;42.04;36.50;51.74;;
45246;Laerm;31529;51.158;7.354;2022-08-01T00:45:58;42.01;38.00;50.59;;
45246;Laerm;31529;51.158;7.354;2022-08-01T00:46:29;40.87;37.42;47.14;;
45246;Laerm;31529;51.158;7.354;2022-08-01T00:47:00;42.24;38.35;52.34;;
45246;Laerm;31529;51.158;7.354;2022-08-01T00:47:31;45.80;37.21;56.41;;
45246;Laerm;31529;51.158;7.354;2022-08-01T00:48:03;64.87;42.12;77.35;;
45246;Laerm;31529;51.158;7.354;2022-08-01T00:48:34;40.45;36.50;44.37;;
45246;Laerm;31529;51.158;7.354;2022-08-01T00:49:05;40.96;35.96;51.57;;
45246;Laerm;31529;51.158;7.354;2022-08-01T00:49:36;44.91;34.20;57.95;;
45246;Laerm;31529;51.158;7.354;2022-08-01T00:50:07;40.61;36.75;46.27;;
45246;Laerm;31529;51.158;7.354;2022-08-01T00:50:38;40.73;37.21;46.37;;
45246;Laerm;31529;51.158;7.354;2022-08-01T00:51:10;44.20;37.42;55.85;;
45246;Laerm;31529;51.158;7.354;2022-08-01T00:51:41;45.29;37.62;57.09;;
45246;Laerm;31529;51.158;7.354;2022-08-01T00:52:12;44.61;38.00;58.60;;
45246;Laerm;31529;51.158;7.354;2022-08-01T00:52:43;44.25;37.21;53.52;;
45246;Laerm;31529;51.158;7.354;2022-08-01T00:53:14;42.38;37.21;55.39;;
45246;Laerm;31529;51.158;7.354;2022-08-01T00:53:45;40.88;36.75;48.23;;
45246;Laerm;31529;51.158;7.354;2022-08-01T00:54:16;43.96;37.62;55.07;;
45246;Laerm;31529;51.158;7.354;2022-08-01T00:54:47;44.03;38.35;57.22;;
45246;Laerm;31529;51.158;7.354;2022-08-01T00:55:19;44.43;38.35;52.69;;
45246;Laerm;31529;51.158;7.354;2022-08-01T00:55:50;40.88;36.24;50.66;;
45246;Laerm;31529;51.158;7.354;2022-08-01T00:56:24;44.48;37.21;53.32;;
45246;Laerm;31529;51.158;7.354;2022-08-01T00:56:55;65.61;39.51;79.21;;
45246;Laerm;31529;51.158;7.354;2022-08-01T00:57:27;47.83;38.82;58.03;;
45246;Laerm;31529;51.158;7.354;2022-08-01T00:57:58;44.83;39.87;51.74;;
45246;Laerm;31529;51.158;7.354;2022-08-01T00:58:30;49.54;39.38;63.95;;
45246;Laerm;31529;51.158;7.354;2022-08-01T00:59:03;46.02;39.25;60.83;;
45246;Laerm;31529;51.158;7.354;2022-08-01T00:59:34;46.89;38.67;59.28;;
45246;Laerm;31529;51.158;7.354;2022-08-01T01:00:06;47.27;39.76;58.33;;
45246;Laerm;31529;51.158;7.354;2022-08-01T01:00:37;54.79;38.18;68.04;;
45246;Laerm;31529;51.158;7.354;2022-08-01T01:01:08;51.37;36.75;68.46;;
45246;Laerm;31529;51.158;7.354;2022-08-01T01:01:39;39.79;35.96;46.55;;
45246;Laerm;31529;51.158;7.354;2022-08-01T01:02:10;47.38;37.42;60.14;;
45246;Laerm;31529;51.158;7.354;2022-08-01T01:02:41;46.53;35.96;60.15;;
45246;Laerm;31529;51.158;7.354;2022-08-01T01:03:12;43.57;34.61;58.76;;
45246;Laerm;31529;51.158;7.354;2022-08-01T01:03:44;42.90;35.66;54.26;;
45246;Laerm;31529;51.158;7.354;2022-08-01T01:04:15;42.92;35.34;52.77;;
45246;Laerm;31529;51.158;7.354;2022-08-01T01:04:46;41.06;34.99;47.52;;
45246;Laerm;31529;51.158;7.354;2022-08-01T01:05:17;43.53;34.99;55.67;;
45246;Laerm;31529;51.158;7.354;2022-08-01T01:06:57;40.57;34.61;49.65;;
45246;Laerm;31529;51.158;7.354;2022-08-01T01:08:14;65.61;37.21;81.42;;
45246;Laerm;31529;51.158;7.354;2022-08-01T01:09:02;63.50;35.96;77.20;;
45246;Laerm;31529;51.158;7.354;2022-08-01T01:10:25;40.81;34.20;50.00;;
45246;Laerm;31529;51.158;7.354;2022-08-01T01:11:56;40.46;35.66;43.88;;
45246;Laerm;31529;51.158;7.354;2022-08-01T01:13:09;42.65;35.96;60.27;;
45246;Laerm;31529;51.158;7.354;2022-08-01T01:14:04;42.66;35.34;56.46;;
45246;Laerm;31529;51.158;7.354;2022-08-01T01:15:46;41.72;35.96;55.13;;
45246;Laerm;31529;51.158;7.354;2022-08-01T01:16:19;40.93;37.62;49.54;;
45246;Laerm;31529;51.158;7.354;2022-08-01T01:16:53;39.20;34.20;42.59;;
45246;Laerm;31529;51.158;7.354;2022-08-01T01:17:28;39.37;34.61;44.99;;
45246;Laerm;31529;51.158;7.354;2022-08-01T01:18:03;39.79;36.24;42.95;;
45246;Laerm;31529;51.158;7.354;2022-08-01T01:18:44;39.85;34.20;45.81;;
45246;Laerm;31529;51.158;7.354;2022-08-01T01:19:21;38.80;34.61;43.39;;
45246;Laerm;31529;51.158;7.354;2022-08-01T01:19:55;38.45;34.61;42.12;;
45246;Laerm;31529;51.158;7.354;2022-08-01T01:20:34;39.22;34.99;42.26;;
45246;Laerm;31529;51.158;7.354;2022-08-01T01:22:50;38.50;33.74;42.12;;
45246;Laerm;31529;51.158;7.354;2022-08-01T01:23:39;39.18;34.20;56.40;;
45246;Laerm;31529;51.158;7.354;2022-08-01T01:25:23;60.40;37.82;74.15;;
45246;Laerm;31529;51.158;7.354;2022-08-01T01:27:19;38.47;33.23;43.72;;
45246;Laerm;31529;51.158;7.354;2022-08-01T01:28:03;40.77;35.66;46.21;;
45246;Laerm;31529;51.158;7.354;2022-08-01T01:29:35;38.45;34.20;42.19;;
45246;Laerm;31529;51.158;7.354;2022-08-01T01:30:10;44.53;34.20;58.73;;
45246;Laerm;31529;51.158;7.354;2022-08-01T01:30:43;40.80;34.99;47.72;;
45246;Laerm;31529;51.158;7.354;2022-08-01T01:31:16;43.11;36.75;47.87;;
45246;Laerm;31529;51.158;7.354;2022-08-01T01:32:05;45.96;37.42;54.61;;
45246;Laerm;31529;51.158;7.354;2022-08-01T01:32:44;45.35;37.21;58.90;;
45246;Laerm;31529;51.158;7.354;2022-08-01T01:33:17;40.52;35.96;43.76;;
45246;Laerm;31529;51.158;7.354;2022-08-01T01:33:51;38.98;34.99;44.92;;
45246;Laerm;31529;51.158;7.354;2022-08-01T01:34:25;39.99;34.61;43.23;;
45246;Laerm;31529;51.158;7.354;2022-08-01T01:34:59;38.55;34.20;44.16;;
45246;Laerm;31529;51.158;7.354;2022-08-01T01:35:34;38.12;33.74;41.49;;
45246;Laerm;31529;51.158;7.354;2022-08-01T01:36:09;39.38;34.20;42.71;;
45246;Laerm;31529;51.158;7.354;2022-08-01T01:36:43;41.97;36.99;48.87;;
45246;Laerm;31529;51.158;7.354;2022-08-01T01:37:17;41.92;37.62;47.08;;
45246;Laerm;31529;51.158;7.354;2022-08-01T01:37:53;39.67;34.20;43.06;;
45246;Laerm;31529;51.158;7.354;2022-08-01T01:38:28;39.94;33.23;47.27;;
45246;Laerm;31529;51.158;7.354;2022-08-01T01:39:00;41.39;35.34;47.36;;
45246;Laerm;31529;51.158;7.354;2022-08-01T01:39:32;42.12;37.21;52.12;;
45246;Laerm;31529;51.158;7.354;2022-08-01T01:40:05;39.39;34.27;44.73;;
45246;Laerm;31529;51.158;7.354;2022-08-01T01:40:37;39.95;33.23;49.08;;
45246;Laerm;31529;51.158;7.354;2022-08-01T01:41:11;38.57;33.23;44.07;;
45246;Laerm;31529;51.158;7.354;2022-08-01T01:41:44;37.53;31.98;41.68;;
45246;Laerm;31529;51.158;7.354;2022-08-01T01:42:17;37.33;31.19;40.83;;
45246;Laerm;31529;51.158;7.354;2022-08-01T01:42:48;39.64;31.19;46.73;;
45246;Laerm;31529;51.158;7.354;2022-08-01T01:43:21;39.54;34.99;43.54;;
45246;Laerm;31529;51.158;7.354;2022-08-01T01:43:53;39.82;33.74;46.53;;
45246;Laerm;31529;51.158;7.354;2022-08-01T01:44:25;39.91;31.98;50.22;;
45246;Laerm;31529;51.158;7.354;2022-08-01T01:44:58;37.73;31.98;46.05;;
45246;Laerm;31529;51.158;7.354;2022-08-01T01:45:29;40.78;33.23;48.84;;
45246;Laerm;31529;51.158;7.354;2022-08-01T01:46:03;61.92;38.67;75.56;;
45246;Laerm;31529;51.158;7.354;2022-08-01T01:46:35;39.13;33.23;43.64;;
45246;Laerm;31529;51.158;7.354;2022-08-01T01:47:07;42.37;33.23;55.65;;
45246;Laerm;31529;51.158;7.354;2022-08-01T01:47:38;41.56;37.42;48.13;;
45246;Laerm;31529;51.158;7.354;2022-08-01T01:48:14;38.35;31.98;44.29;;
45246;Laerm;31529;51.158;7.354;2022-08-01T01:48:46;38.20;33.39;43.79;;
45246;Laerm;31529;51.158;7.354;2022-08-01T01:49:22;47.38;34.99;61.25;;
45246;Laerm;31529;51.158;7.354;2022-08-01T01:49:55;62.08;35.34;76.80;;
45246;Laerm;31529;51.158;7.354;2022-08-01T01:50:28;42.73;33.23;56.68;;
45246;Laerm;31529;51.158;7.354;2022-08-01T01:51:00;41.36;33.23;53.16;;
45246;Laerm;31529;51.158;7.354;2022-08-01T01:51:31;41.45;33.74;53.09;;
45246;Laerm;31529;51.158;7.354;2022-08-01T01:52:03;39.35;33.23;47.32;;
45246;Laerm;31529;51.158;7.354;2022-08-01T01:52:36;38.86;33.74;44.24;;
45246;Laerm;31529;51.158;7.354;2022-08-01T01:53:09;60.47;35.66;76.15;;
45246;Laerm;31529;51.158;7.354;2022-08-01T01:53:43;40.90;35.34;50.95;;
45246;Laerm;31529;51.158;7.354;2022-08-01T01:54:14;47.38;35.96;65.02;;
45246;Laerm;31529;51.158;7.354;2022-08-01T01:54:48;40.98;35.34;51.15;;
45246;Laerm;31529;51.158;7.354;2022-08-01T01:55:21;38.85;34.64;46.07;;
45246;Laerm;31529;51.158;7.354;2022-08-01T01:55:53;38.07;34.20;41.83;;
45246;Laerm;31529;51.158;7.354;2022-08-01T01:56:27;38.01;32.65;43.06;;
45246;Laerm;31529;51.158;7.354;2022-08-01T01:57:00;38.95;32.65;44.57;;
45246;Laerm;31529;51.158;7.354;2022-08-01T01:57:35;39.78;32.65;48.67;;
45246;Laerm;31529;51.158;7.354;2022-08-01T01:58:07;38.72;31.98;44.57;;
45246;Laerm;31529;51.158;7.354;2022-08-01T01:58:39;38.98;33.85;42.94;;
45246;Laerm;31529;51.158;7.354;2022-08-01T01:59:10;47.59;33.74;62.14;;
45246;Laerm;31529;51.158;7.354;2022-08-01T01:59:44;42.68;38.35;54.47;;
45246;Laerm;31529;51.158;7.354;2022-08-01T02:00:17;38.97;34.20;43.49;;
45246;Laerm;31529;51.158;7.354;2022-08-01T02:00:49;38.29;33.23;42.95;;
45246;Laerm;31529;51.158;7.354;2022-08-01T02:01:23;42.06;33.74;56.49;;
45246;Laerm;31529;51.158;7.354;2022-08-01T02:01:58;39.25;35.61;43.39;;
45246;Laerm;31529;51.158;7.354;2022-08-01T02:02:30;59.85;37.07;72.95;;
45246;Laerm;31529;51.158;7.354;2022-08-01T02:03:06;42.95;39.25;45.75;;
45246;Laerm;31529;51.158;7.354;2022-08-01T02:03:38;44.36;36.99;55.36;;
45246;Laerm;31529;51.158;7.354;2022-08-01T02:04:12;42.80;37.62;55.12;;
45246;Laerm;31529;51.158;7.354;2022-08-01T02:04:45;42.05;36.99;46.63;;
45246;Laerm;31529;51.158;7.354;2022-08-01T02:05:17;40.72;36.64;54.40;;
45246;Laerm;31529;51.158;7.354;2022-08-01T02:05:51;39.42;34.61;43.74;;
45246;Laerm;31529;51.158;7.354;2022-08-01T02:06:25;39.84;35.66;47.25;;
45246;Laerm;31529;51.158;7.354;2022-08-01T02:06:58;40.40;36.24;43.74;;
45246;Laerm;31529;51.158;7.354;2022-08-01T02:07:30;42.57;35.66;49.54;;
45246;Laerm;31529;51.158;7.354;2022-08-01T02:08:02;39.53;35.34;42.54;;
45246;Laerm;31529;51.158;7.354;2022-08-01T02:08:35;65.37;36.24;79.38;;
45246;Laerm;31529;51.158;7.354;2022-08-01T02:09:08;41.09;34.99;48.50;;
45246;Laerm;31529;51.158;7.354;2022-08-01T02:09:42;39.65;33.74;48.09;;
45246;Laerm;31529;51.158;7.354;2022-08-01T02:10:15;39.88;32.65;44.16;;
45246;Laerm;31529;51.158;7.354;2022-08-01T02:10:49;39.02;33.23;45.78;;
45246;Laerm;31529;51.158;7.354;2022-08-01T02:11:40;37.92;31.98;45.10;;
45246;Laerm;31529;51.158;7.354;2022-08-01T02:12:12;41.83;34.99;49.64;;
45246;Laerm;31529;51.158;7.354;2022-08-01T02:12:44;39.53;35.66;44.45;;
45246;Laerm;31529;51.158;7.354;2022-08-01T02:13:16;38.81;34.20;42.19;;
45246;Laerm;31529;51.158;7.354;2022-08-01T02:13:59;63.00;38.18;76.27;;
45246;Laerm;31529;51.158;7.354;2022-08-01T02:14:33;45.62;37.82;56.87;;
45246;Laerm;31529;51.158;7.354;2022-08-01T02:15:06;39.42;34.99;42.66;;
45246;Laerm;31529;51.158;7.354;2022-08-01T02:15:37;39.16;34.61;43.28;;
45246;Laerm;31529;51.158;7.354;2022-08-01T02:16:09;41.08;35.34;49.75;;
45246;Laerm;31529;51.158;7.354;2022-08-01T02:16:45;65.27;39.76;75.78;;
45246;Laerm;31529;51.158;7.354;2022-08-01T02:17:20;41.15;32.65;49.65;;
45246;Laerm;31529;51.158;7.354;2022-08-01T02:17:53;62.87;34.61;76.89;;
45246;Laerm;31529;51.158;7.354;2022-08-01T02:18:25;51.31;36.75;63.00;;
45246;Laerm;31529;51.158;7.354;2022-08-01T02:18:56;38.91;33.74;43.79;;
45246;Laerm;31529;51.158;7.354;2022-08-01T02:19:27;62.36;34.99;75.63;;
45246;Laerm;31529;51.158;7.354;2022-08-01T02:19:58;57.43;37.21;72.85;;
45246;Laerm;31529;51.158;7.354;2022-08-01T02:20:30;37.89;30.22;43.06;;
45246;Laerm;31529;51.158;7.354;2022-08-01T02:21:04;37.65;31.98;41.60;;
45246;Laerm;31529;51.158;7.354;2022-08-01T02:21:40;38.98;33.74;44.07;;
45246;Laerm;31529;51.158;7.354;2022-08-01T02:22:18;40.22;35.66;48.59;;
45246;Laerm;31529;51.158;7.354;2022-08-01T02:22:57;40.23;36.50;47.70;;
45246;Laerm;31529;51.158;7.354;2022-08-01T02:23:33;66.31;41.83;78.51;;
45246;Laerm;31529;51.158;7.354;2022-08-01T02:24:12;46.22;33.74;59.61;;
45246;Laerm;31529;51.158;7.354;2022-08-01T02:24:51;46.08;34.20;59.44;;
45246;Laerm;31529;51.158;7.354;2022-08-01T02:25:34;64.32;34.20;77.72;;
45246;Laerm;31529;51.158;7.354;2022-08-01T02:26:10;37.31;30.22;41.28;;
45246;Laerm;31529;51.158;7.354;2022-08-01T02:26:47;63.94;31.98;77.38;;
45246;Laerm;31529;51.158;7.354;2022-08-01T02:27:26;49.61;33.23;63.23;;
45246;Laerm;31529;51.158;7.354;2022-08-01T02:28:05;39.17;32.65;47.10;;
45246;Laerm;31529;51.158;7.354;2022-08-01T02:28:47;38.25;32.65;44.20;;
45246;Laerm;31529;51.158;7.354;2022-08-01T02:29:24;36.87;27.21;43.12;;
45246;Laerm;31529;51.158;7.354;2022-08-01T02:30:03;37.55;31.98;42.12;;
45246;Laerm;31529;51.158;7.354;2022-08-01T02:30:38;37.24;31.19;41.01;;
45246;Laerm;31529;51.158;7.354;2022-08-01T02:31:13;38.62;31.98;46.96;;
45246;Laerm;31529;51.158;7.354;2022-08-01T02:31:48;37.93;30.22;43.98;;
45246;Laerm;31529;51.158;7.354;2022-08-01T02:32:43;37.73;31.19;42.89;;
45246;Laerm;31529;51.158;7.354;2022-08-01T02:33:17;38.62;33.74;42.71;;
45246;Laerm;31529;51.158;7.354;2022-08-01T02:33:59;65.41;31.98;79.98;;
45246;Laerm;31529;51.158;7.354;2022-08-01T02:34:34;63.10;40.22;77.52;;
45246;Laerm;31529;51.158;7.354;2022-08-01T02:35:09;39.34;34.20;42.46;;
45246;Laerm;31529;51.158;7.354;2022-08-01T02:35:43;43.98;36.75;54.57;;
45246;Laerm;31529;51.158;7.354;2022-08-01T02:36:19;63.36;37.82;76.68;;
45246;Laerm;31529;51.158;7.354;2022-08-01T02:36:52;41.40;35.34;45.93;;
45246;Laerm;31529;51.158;7.354;2022-08-01T02:37:26;41.28;36.75;45.13;;
45246;Laerm;31529;51.158;7.354;2022-08-01T02:38:01;39.41;33.23;43.39;;
45246;Laerm;31529;51.158;7.354;2022-08-01T02:38:37;49.61;34.99;61.82;;
45246;Laerm;31529;51.158;7.354;2022-08-01T02:39:13;64.24;35.96;76.99;;
45246;Laerm;31529;51.158;7.354;2022-08-01T02:39:47;64.72;37.82;77.33;;
45246;Laerm;31529;51.158;7.354;2022-08-01T02:40:21;37.39;28.97;41.36;;
45246;Laerm;31529;51.158;7.354;2022-08-01T02:40:54;37.18;30.22;40.22;;
45246;Laerm;31529;51.158;7.354;2022-08-01T02:41:29;38.38;33.23;43.34;;
45246;Laerm;31529;51.158;7.354;2022-08-01T02:42:05;60.87;34.99;74.50;;
45246;Laerm;31529;51.158;7.354;2022-08-01T02:42:37;42.54;38.00;49.01;;
45246;Laerm;31529;51.158;7.354;2022-08-01T02:43:10;70.30;38.35;83.44;;
45246;Laerm;31529;51.158;7.354;2022-08-01T02:43:46;39.14;34.61;42.46;;
45246;Laerm;31529;51.158;7.354;2022-08-01T02:44:23;59.36;32.65;73.59;;
45246;Laerm;31529;51.158;7.354;2022-08-01T02:44:56;47.80;34.64;62.51;;
45246;Laerm;31529;51.158;7.354;2022-08-01T02:45:28;62.46;35.66;79.37;;
45246;Laerm;31529;51.158;7.354;2022-08-01T02:46:02;72.31;47.34;84.80;;
45246;Laerm;31529;51.158;7.354;2022-08-01T02:46:38;42.64;35.66;49.89;;
45246;Laerm;31529;51.158;7.354;2022-08-01T02:47:12;41.22;35.96;45.90;;
45246;Laerm;31529;51.158;7.354;2022-08-01T02:47:44;38.28;32.65;44.29;;
45246;Laerm;31529;51.158;7.354;2022-08-01T02:48:18;39.99;34.20;47.17;;
45246;Laerm;31529;51.158;7.354;2022-08-01T02:48:52;39.08;33.23;42.71;;
45246;Laerm;31529;51.158;7.354;2022-08-01T02:49:29;41.49;31.98;53.79;;
45246;Laerm;31529;51.158;7.354;2022-08-01T02:50:02;64.76;33.23;80.62;;
45246;Laerm;31529;51.158;7.354;2022-08-01T02:50:33;44.11;37.82;54.51;;
45246;Laerm;31529;51.158;7.354;2022-08-01T02:51:06;61.09;42.71;74.39;;
45246;Laerm;31529;51.158;7.354;2022-08-01T02:51:39;64.74;37.83;79.04;;
45246;Laerm;31529;51.158;7.354;2022-08-01T02:52:13;67.34;38.51;78.77;;
45246;Laerm;31529;51.158;7.354;2022-08-01T02:52:48;59.89;38.18;75.37;;
45246;Laerm;31529;51.158;7.354;2022-08-01T02:53:23;39.65;33.74;46.19;;
45246;Laerm;31529;51.158;7.354;2022-08-01T02:53:56;62.09;35.34;76.22;;
45246;Laerm;31529;51.158;7.354;2022-08-01T02:54:31;42.66;34.99;48.11;;
45246;Laerm;31529;51.158;7.354;2022-08-01T02:55:04;43.25;37.62;48.97;;
45246;Laerm;31529;51.158;7.354;2022-08-01T02:55:38;41.01;35.34;50.38;;
45246;Laerm;31529;51.158;7.354;2022-08-01T02:56:11;68.80;42.59;80.38;;
45246;Laerm;31529;51.158;7.354;2022-08-01T02:56:44;60.93;41.91;73.75;;
45246;Laerm;31529;51.158;7.354;2022-08-01T02:57:17;66.82;42.39;78.73;;
45246;Laerm;31529;51.158;7.354;2022-08-01T02:57:52;62.70;36.99;79.22;;
45246;Laerm;31529;51.158;7.354;2022-08-01T02:58:26;60.01;34.99;77.90;;
45246;Laerm;31529;51.158;7.354;2022-08-01T02:58:57;38.72;32.65;41.19;;
45246;Laerm;31529;51.158;7.354;2022-08-01T02:59:29;65.55;38.67;79.95;;
45246;Laerm;31529;51.158;7.354;2022-08-01T03:00:01;65.80;42.30;78.56;;
45246;Laerm;31529;51.158;7.354;2022-08-01T03:00:32;57.63;34.99;74.41;;
45246;Laerm;31529;51.158;7.354;2022-08-01T03:01:05;61.20;39.64;74.78;;
45246;Laerm;31529;51.158;7.354;2022-08-01T03:01:39;69.39;39.64;80.39;;
45246;Laerm;31529;51.158;7.354;2022-08-01T03:02:10;40.11;35.96;43.79;;
45246;Laerm;31529;51.158;7.354;2022-08-01T03:02:43;61.80;34.20;75.42;;
45246;Laerm;31529;51.158;7.354;2022-08-01T03:03:16;62.26;44.11;74.78;;
45246;Laerm;31529;51.158;7.354;2022-08-01T03:03:47;66.84;44.20;77.93;;
45246;Laerm;31529;51.158;7.354;2022-08-01T03:04:20;67.70;49.04;78.22;;
45246;Laerm;31529;51.158;7.354;2022-08-01T03:04:53;63.31;32.65;77.78;;
45246;Laerm;31529;51.158;7.354;2022-08-01T03:05:25;61.96;34.20;76.60;;
45246;Laerm;31529;51.158;7.354;2022-08-01T03:05:57;52.23;35.34;67.69;;
45246;Laerm;31529;51.158;7.354;2022-08-01T03:06:29;37.46;31.63;40.83;;
45246;Laerm;31529;51.158;7.354;2022-08-01T03:07:03;60.17;33.74;73.37;;
45246;Laerm;31529;51.158;7.354;2022-08-01T03:07:35;42.22;39.11;52.20;;
45246;Laerm;31529;51.158;7.354;2022-08-01T03:08:08;68.57;42.52;80.18;;
45246;Laerm;31529;51.158;7.354;2022-08-01T03:08:39;64.90;36.75;78.63;;
45246;Laerm;31529;51.158;7.354;2022-08-01T03:09:11;40.19;33.74;44.24;;
45246;Laerm;31529;51.158;7.354;2022-08-01T03:09:45;60.43;36.24;73.05;;
45246;Laerm;31529;51.158;7.354;2022-08-01T03:10:17;68.29;42.83;78.17;;
45246;Laerm;31529;51.158;7.354;2022-08-01T03:10:48;39.64;33.23;44.37;;
45246;Laerm;31529;51.158;7.354;2022-08-01T03:11:22;41.03;34.61;44.73;;
45246;Laerm;31529;51.158;7.354;2022-08-01T03:11:57;61.64;36.99;75.29;;
45246;Laerm;31529;51.158;7.354;2022-08-01T03:12:33;45.74;38.51;57.95;;
45246;Laerm;31529;51.158;7.354;2022-08-01T03:13:06;65.24;42.46;77.05;;
45246;Laerm;31529;51.158;7.354;2022-08-01T03:13:40;71.33;49.50;83.62;;
45246;Laerm;31529;51.158;7.354;2022-08-01T03:14:13;68.49;40.33;81.38;;
45246;Laerm;31529;51.158;7.354;2022-08-01T03:14:46;61.30;39.38;73.93;;
45246;Laerm;31529;51.158;7.354;2022-08-01T03:15:18;67.97;42.77;79.41;;
45246;Laerm;31529;51.158;7.354;2022-08-01T03:15:51;64.99;43.54;79.86;;
45246;Laerm;31529;51.158;7.354;2022-08-01T03:16:24;71.32;44.20;81.33;;